Boston College, Massachusetts
Current Conditions -  °F | °C
As of 2:54 AM on Sunday 26 Oct 2014 (Local Time) from KBOS Reporting Station
Broken Clouds Broken Clouds  
Wind Chill: 56°   Ceiling: 24000
Heat Index: 56°   Visibility: 10mi
Dew Point: 44°   Wind: 9mph
Humidity: 64%   Direction: 280°W
Pressure: 29.46"   Gusts: NA
Location:  42.3163°N, 71.1603°W
Report Text: KBOS 260654Z 28008KT 10SM FEW120 BKN240 13/07 A2946 RMK AO2 SLP975 T01330067
Loading
Personal Weather Stations






























Interactive Weather Map
Tropical Storm Tracking
New forecast layout! Learn more

10-Day Weather Forecast

Advertisements
Track Severe Weather on mobile